Time;durP1;ratioP1;P1;durP2;ratioP2;P2;SDS_P1;SDS_P2;PMS_P1;PMS_P2;Temp;Humidity;BMP_temperature;BMP_pressure;BME280_temperature;BME280_humidity;BME280_pressure;Samples;Min_cycle;Max_cycle;Signal;HPM_P1;HPM_P2
2022/04/05 00:01:30;;;;;;;;;;;;;;;;;;5091371;28;19931;-74
2022/04/05 00:03:57;;;;;;;;;;;;;;;;;;5090803;28;20022;-74
2022/04/05 00:06:24;;;;;;;;;;;;;;;;;;5090853;28;19924;-74
2022/04/05 00:08:51;;;;;;;;;;;;;;;;;;5089303;28;19925;-74
2022/04/05 00:11:18;;;;;;;;;;;;;;;;;;5089652;28;20375;-74
2022/04/05 00:13:45;;;;;;;;;;;;;;;;;;5088374;28;19929;-75
2022/04/05 00:16:12;;;;;;;;;;;;;;;;;;5092302;28;20022;-74
2022/04/05 00:18:39;;;;;;;;;;;;;;;;;;5087959;28;19930;-74
2022/04/05 00:21:06;;;;;;;;;;;;;;;;;;5090584;28;19924;-74
2022/04/05 00:23:33;;;;;;;;;;;;;;;;;;5089497;28;19924;-74
2022/04/05 00:26:00;;;;;;;;;;;;;;;;;;5087350;28;19928;-75
2022/04/05 00:28:27;;;;;;;;;;;;;;;;;;5090934;28;19924;-74
2022/04/05 00:30:54;;;;;;;;;;;;;;;;;;5087884;28;19924;-75
2022/04/05 00:33:21;;;;;;;;;;;;;;;;;;5089257;28;19924;-74
2022/04/05 00:35:48;;;;;;;;;;;;;;;;;;5089680;28;19930;-74
2022/04/05 00:38:15;;;;;;;;;;;;;;;;;;5092189;28;19924;-74
2022/04/05 00:40:42;;;;;;;;;;;;;;;;;;5089693;28;19981;-74
2022/04/05 00:43:09;;;;;;;;;;;;;;;;;;5090561;28;20410;-73
2022/04/05 00:45:36;;;;;;;;;;;;;;;;;;5086756;28;20401;-73
2022/04/05 00:48:04;;;;;;;;;;;;;;;;;;5089340;28;20367;-74
2022/04/05 00:50:31;;;;;;;;;;;;;;;;;;5089450;28;19928;-74
2022/04/05 00:53:00;;;;;;;;;;;;;;;;;;5091219;28;20170;-75
2022/04/05 00:55:27;;;;;;;;;;;;;;;;;;5088005;28;20329;-74
2022/04/05 00:57:54;;;;;;;;;;;;;;;;;;5092049;28;19924;-74
2022/04/05 01:00:21;;;;;;;;;;;;;;;;;;5089467;28;19924;-73
2022/04/05 01:02:49;;;;;;;;;;;;;;;;;;5092105;28;19950;-73
2022/04/05 01:05:16;;;;;;;;;;;;;;;;;;5087212;28;19993;-73
2022/04/05 01:07:42;;;;;;;;;;;;;;;;;;5089636;28;20414;-73
2022/04/05 01:10:12;;;;;;;;;;;;;;;;;;5089462;28;19931;-76
2022/04/05 01:12:39;;;;;;;;;;;;;;;;;;5091402;28;19930;-73
2022/04/05 01:15:06;;;;;;;;;;;;;;;;;;5089262;28;20030;-73
2022/04/05 01:17:33;;;;;;;;;;;;;;;;;;5084203;28;19924;-73
2022/04/05 01:20:00;;;;;;;;;;;;;;;;;;5087013;28;19928;-73
2022/04/05 01:22:27;;;;;;;;;;;;;;;;;;5089501;28;20018;-73
2022/04/05 01:24:54;;;;;;;;;;;;;;;;;;5089690;28;19925;-74
2022/04/05 01:27:27;;;;;;;;;;;;;;;;;;5090287;28;19924;-74
2022/04/05 01:29:54;;;;;;;;;;;;;;;;;;5088481;28;20435;-76
2022/04/05 01:32:21;;;;;;;;;;;;;;;;;;5093853;28;19924;-72
2022/04/05 01:34:48;;;;;;;;;;;;;;;;;;5091563;28;19924;-72
2022/04/05 01:37:15;;;;;;;;;;;;;;;;;;5088481;28;20290;-72
2022/04/05 01:39:42;;;;;;;;;;;;;;;;;;5086513;28;20031;-73
2022/04/05 01:42:09;;;;;;;;;;;;;;;;;;5090581;28;19969;-73
2022/04/05 01:44:36;;;;;;;;;;;;;;;;;;5085450;28;19924;-73
2022/04/05 01:47:03;;;;;;;;;;;;;;;;;;5088748;28;19928;-73
2022/04/05 01:49:29;;;;;;;;;;;;;;;;;;5089592;28;20291;-73
2022/04/05 01:51:56;;;;;;;;;;;;;;;;;;5091328;28;19959;-73
2022/04/05 01:54:23;;;;;;;;;;;;;;;;;;5087990;28;19924;-73
2022/04/05 01:56:50;;;;;;;;;;;;;;;;;;5089817;28;19924;-71
2022/04/05 01:59:17;;;;;;;;;;;;;;;;;;5088258;28;19924;-72
2022/04/05 02:01:44;;;;;;;;;;;;;;;;;;5089091;28;19928;-74
2022/04/05 02:04:11;;;;;;;;;;;;;;;;;;5087116;28;19924;-74
2022/04/05 02:06:38;;;;;;;;;;;;;;;;;;5088580;28;19931;-74
2022/04/05 02:09:05;;;;;;;;;;;;;;;;;;5087944;28;19938;-74
2022/04/05 02:11:32;;;;;;;;;;;;;;;;;;5089594;28;19950;-74
2022/04/05 02:13:59;;;;;;;;;;;;;;;;;;5087388;28;20027;-74
2022/04/05 02:16:26;;;;;;;;;;;;;;;;;;5088868;28;20010;-73
2022/04/05 02:18:53;;;;;;;;;;;;;;;;;;5084339;28;20302;-73
2022/04/05 02:21:20;;;;;;;;;;;;;;;;;;5089856;28;19924;-74
2022/04/05 02:23:47;;;;;;;;;;;;;;;;;;5088022;28;19967;-73
2022/04/05 02:26:14;;;;;;;;;;;;;;;;;;5087376;28;19931;-73
2022/04/05 02:28:41;;;;;;;;;;;;;;;;;;5089011;28;19924;-73
2022/04/05 02:31:08;;;;;;;;;;;;;;;;;;5087724;28;20383;-73
2022/04/05 02:33:35;;;;;;;;;;;;;;;;;;5087691;28;20001;-73
2022/04/05 02:36:03;;;;;;;;;;;;;;;;;;5088813;28;19954;-74
2022/04/05 02:38:30;;;;;;;;;;;;;;;;;;5088377;28;20393;-74
2022/04/05 02:40:59;;;;;;;;;;;;;;;;;;5087468;28;20130;-73
2022/04/05 02:43:26;;;;;;;;;;;;;;;;;;5084809;28;19930;-74
2022/04/05 02:45:55;;;;;;;;;;;;;;;;;;5087380;28;19950;-74
2022/04/05 02:48:22;;;;;;;;;;;;;;;;;;5086769;28;19924;-74
2022/04/05 02:50:48;;;;;;;;;;;;;;;;;;5086760;28;20040;-74
2022/04/05 02:53:15;;;;;;;;;;;;;;;;;;5088927;28;19924;-73
2022/04/05 02:55:43;;;;;;;;;;;;;;;;;;5087763;28;20295;-73
2022/04/05 02:58:09;;;;;;;;;;;;;;;;;;5087926;28;19939;-73
2022/04/05 03:00:37;;;;;;;;;;;;;;;;;;5086959;28;19932;-73
2022/04/05 03:03:04;;;;;;;;;;;;;;;;;;5087867;28;20012;-73
2022/04/05 03:05:31;;;;;;;;;;;;;;;;;;5088013;28;19967;-74
2022/04/05 03:08:03;;;;;;;;;;;;;;;;;;5090851;28;19984;-73
2022/04/05 03:10:32;;;;;;;;;;;;;;;;;;5091344;28;20398;-74
2022/04/05 03:13:00;;;;;;;;;;;;;;;;;;5093628;28;19972;-74
2022/04/05 03:15:27;;;;;;;;;;;;;;;;;;5085178;28;19924;-74
2022/04/05 03:17:55;;;;;;;;;;;;;;;;;;5094121;28;19930;-75
2022/04/05 03:20:22;;;;;;;;;;;;;;;;;;5092392;28;19928;-74
2022/04/05 03:22:49;;;;;;;;;;;;;;;;;;5093240;28;19924;-73
2022/04/05 03:25:16;;;;;;;;;;;;;;;;;;5089718;28;20014;-72
2022/04/05 03:27:43;;;;;;;;;;;;;;;;;;5091318;28;19924;-74
2022/04/05 03:30:10;;;;;;;;;;;;;;;;;;5088361;28;19974;-74
2022/04/05 03:32:37;;;;;;;;;;;;;;;;;;5091763;28;19923;-72
2022/04/05 03:35:04;;;;;;;;;;;;;;;;;;5089712;28;20303;-72
2022/04/05 03:37:31;;;;;;;;;;;;;;;;;;5091520;28;19946;-71
2022/04/05 03:39:58;;;;;;;;;;;;;;;;;;5089120;28;20302;-72
2022/04/05 03:42:25;;;;;;;;;;;;;;;;;;5092234;28;20378;-73
2022/04/05 03:44:52;;;;;;;;;;;;;;;;;;5091034;28;19924;-72
2022/04/05 03:47:19;;;;;;;;;;;;;;;;;;5092166;28;19930;-72
2022/04/05 03:49:46;;;;;;;;;;;;;;;;;;5091415;28;20410;-73
2022/04/05 03:52:13;;;;;;;;;;;;;;;;;;5090025;28;19924;-72
2022/04/05 03:54:40;;;;;;;;;;;;;;;;;;5091142;28;19924;-72
2022/04/05 03:57:07;;;;;;;;;;;;;;;;;;5091332;28;19931;-72
2022/04/05 03:59:34;;;;;;;;;;;;;;;;;;5092127;28;19928;-73
2022/04/05 04:02:01;;;;;;;;;;;;;;;;;;5087433;28;20023;-73
2022/04/05 04:04:28;;;;;;;;;;;;;;;;;;5091416;28;19975;-73
2022/04/05 04:06:55;;;;;;;;;;;;;;;;;;5092172;28;19930;-73
2022/04/05 04:09:21;;;;;;;;;;;;;;;;;;5091504;28;19924;-73
2022/04/05 04:11:49;;;;;;;;;;;;;;;;;;5091792;28;19924;-72
2022/04/05 04:14:16;;;;;;;;;;;;;;;;;;5091013;28;19969;-73
2022/04/05 04:16:43;;;;;;;;;;;;;;;;;;5091200;28;20436;-74
2022/04/05 04:19:10;;;;;;;;;;;;;;;;;;5092863;28;19934;-74
2022/04/05 04:21:37;;;;;;;;;;;;;;;;;;5097184;28;19924;-74
2022/04/05 04:24:04;;;;;;;;;;;;;;;;;;5070790;28;19929;-74
2022/04/05 04:26:31;;;;;;;;;;;;;;;;;;5068655;28;19939;-74
2022/04/05 04:29:02;;;;;;;;;;;;;;;;;;5067824;28;19932;-74
2022/04/05 04:31:29;;;;;;;;;;;;;;;;;;5071167;28;19928;-74
2022/04/05 04:33:55;;;;;;;;;;;;;;;;;;5068261;28;19934;-74
2022/04/05 04:36:22;;;;;;;;;;;;;;;;;;5071083;28;19925;-74
2022/04/05 04:38:49;;;;;;;;;;;;;;;;;;5070668;28;19924;-74
2022/04/05 04:41:16;;;;;;;;;;;;;;;;;;5070200;28;19931;-74
2022/04/05 04:43:43;;;;;;;;;;;;;;;;;;5068971;28;19925;-74
2022/04/05 04:46:10;;;;;;;;;;;;;;;;;;5068516;28;20398;-74
2022/04/05 04:48:37;;;;;;;;;;;;;;;;;;5071028;28;19928;-74
2022/04/05 04:51:04;;;;;;;;;;;;;;;;;;5072285;28;19935;-74
2022/04/05 04:53:31;;;;;;;;;;;;;;;;;;5069382;28;19931;-74
2022/04/05 04:55:58;;;;;;;;;;;;;;;;;;5073014;28;19934;-74
2022/04/05 04:58:25;;;;;;;;;;;;;;;;;;5071464;28;19924;-74
2022/04/05 05:00:52;;;;;;;;;;;;;;;;;;5070523;28;20000;-75
2022/04/05 05:03:19;;;;;;;;;;;;;;;;;;5070487;28;19925;-74
2022/04/05 05:05:46;;;;;;;;;;;;;;;;;;5070308;28;19931;-74
2022/04/05 05:08:13;;;;;;;;;;;;;;;;;;5071637;28;19975;-75
2022/04/05 05:10:40;;;;;;;;;;;;;;;;;;5070551;28;19932;-75
2022/04/05 05:13:07;;;;;;;;;;;;;;;;;;5070167;28;19925;-75
2022/04/05 05:15:34;;;;;;;;;;;;;;;;;;5070768;28;19924;-74
2022/04/05 05:18:01;;;;;;;;;;;;;;;;;;5071283;28;19924;-74
2022/04/05 05:20:28;;;;;;;;;;;;;;;;;;5065393;28;19924;-75
2022/04/05 05:22:55;;;;;;;;;;;;;;;;;;5078154;28;19928;-75
2022/04/05 05:25:22;;;;;;;;;;;;;;;;;;5089773;28;20003;-75
2022/04/05 05:27:49;;;;;;;;;;;;;;;;;;5089916;28;19999;-75
2022/04/05 05:30:16;;;;;;;;;;;;;;;;;;5087093;28;19946;-75
2022/04/05 05:32:43;;;;;;;;;;;;;;;;;;5090453;28;19924;-72
2022/04/05 05:35:10;;;;;;;;;;;;;;;;;;5090306;28;19931;-73
2022/04/05 05:37:37;;;;;;;;;;;;;;;;;;5091030;28;19935;-73
2022/04/05 05:40:04;;;;;;;;;;;;;;;;;;5090250;28;19924;-74
2022/04/05 05:42:31;;;;;;;;;;;;;;;;;;5092154;28;19924;-75
2022/04/05 05:44:58;;;;;;;;;;;;;;;;;;5089816;28;19931;-75
2022/04/05 05:47:24;;;;;;;;;;;;;;;;;;5089215;28;19935;-74
2022/04/05 05:49:51;;;;;;;;;;;;;;;;;;5093221;28;20401;-74
2022/04/05 05:52:18;;;;;;;;;;;;;;;;;;5089623;28;20293;-74
2022/04/05 05:54:45;;;;;;;;;;;;;;;;;;5089029;28;20335;-74
2022/04/05 05:57:12;;;;;;;;;;;;;;;;;;5090056;28;20374;-74
2022/04/05 05:59:39;;;;;;;;;;;;;;;;;;5088661;28;20449;-74
2022/04/05 06:02:06;;;;;;;;;;;;;;;;;;5090548;28;20450;-74
2022/04/05 06:04:33;;;;;;;;;;;;;;;;;;5089211;28;20384;-74
2022/04/05 06:07:00;;;;;;;;;;;;;;;;;;5092270;28;19928;-74
2022/04/05 06:09:27;;;;;;;;;;;;;;;;;;5086528;28;20287;-73
2022/04/05 06:11:54;;;;;;;;;;;;;;;;;;5090000;28;19924;-74
2022/04/05 06:14:21;;;;;;;;;;;;;;;;;;5087754;28;19924;-74
2022/04/05 06:16:48;;;;;;;;;;;;;;;;;;5090977;28;19924;-74
2022/04/05 06:19:15;;;;;;;;;;;;;;;;;;5089020;28;20003;-73
2022/04/05 06:21:42;;;;;;;;;;;;;;;;;;5086642;28;20026;-75
2022/04/05 06:24:09;;;;;;;;;;;;;;;;;;5088391;28;19932;-74
2022/04/05 06:26:36;;;;;;;;;;;;;;;;;;5088195;28;19928;-74
2022/04/05 06:29:03;;;;;;;;;;;;;;;;;;5087185;28;19930;-74
2022/04/05 06:31:30;;;;;;;;;;;;;;;;;;5088474;28;20009;-73
2022/04/05 06:33:58;;;;;;;;;;;;;;;;;;5087223;28;19932;-77
2022/04/05 06:36:25;;;;;;;;;;;;;;;;;;5088571;28;19963;-75
2022/04/05 06:38:52;;;;;;;;;;;;;;;;;;5086828;28;20020;-75
2022/04/05 06:44:14;;;;;;;;;;;;;;;;;;5076946;28;19939;-75
2022/04/05 06:46:41;;;;;;;;;;;;;;;;;;5092740;28;20345;-75
2022/04/05 06:49:12;;;;;;;;;;;;;;;;;;5092210;28;19924;-74
2022/04/05 06:51:50;;;;;;;;;;;;;;;;;;5091728;28;19982;-76
2022/04/05 06:54:32;;;;;;;;;;;;;;;;;;5091256;28;19936;-76
2022/04/05 06:56:59;;;;;;;;;;;;;;;;;;5092290;28;19977;-76
2022/04/05 06:59:26;;;;;;;;;;;;;;;;;;5099793;28;20024;-76
2022/04/05 07:01:53;;;;;;;;;;;;;;;;;;5099492;28;19934;-76
2022/04/05 07:04:20;;;;;;;;;;;;;;;;;;5097491;28;20760;-75
2022/04/05 07:06:47;;;;;;;;;;;;;;;;;;5088127;28;19932;-75
2022/04/05 07:09:14;;;;;;;;;;;;;;;;;;5087099;28;19939;-76
2022/04/05 07:11:41;;;;;;;;;;;;;;;;;;5088647;28;19931;-75
2022/04/05 07:14:11;;;;;;;;;;;;;;;;;;5082948;28;19932;-75
2022/04/05 07:16:38;;;;;;;;;;;;;;;;;;5084978;28;19935;-76
2022/04/05 07:19:05;;;;;;;;;;;;;;;;;;5086189;28;19931;-75
2022/04/05 07:21:32;;;;;;;;;;;;;;;;;;5088879;28;19930;-77
2022/04/05 07:23:59;;;;;;;;;;;;;;;;;;5083488;28;19932;-75
2022/04/05 07:26:26;;;;;;;;;;;;;;;;;;5085985;28;19932;-76
2022/04/05 07:28:53;;;;;;;;;;;;;;;;;;5084599;28;20354;-76
2022/04/05 07:31:20;;;;;;;;;;;;;;;;;;5078912;28;19928;-74
2022/04/05 07:33:47;;;;;;;;;;;;;;;;;;5081872;28;20007;-76
2022/04/05 07:36:14;;;;;;;;;;;;;;;;;;5081829;28;20010;-76
2022/04/05 07:38:41;;;;;;;;;;;;;;;;;;5079011;28;19924;-76
2022/04/05 07:41:08;;;;;;;;;;;;;;;;;;5085013;28;19928;-77
2022/04/05 07:43:35;;;;;;;;;;;;;;;;;;5081015;28;19932;-75
2022/04/05 07:46:02;;;;;;;;;;;;;;;;;;5084208;28;19964;-75
2022/04/05 07:48:29;;;;;;;;;;;;;;;;;;5083256;28;20019;-77
2022/04/05 07:50:57;;;;;;;;;;;;;;;;;;5086440;28;19927;-75
2022/04/05 07:53:24;;;;;;;;;;;;;;;;;;5088075;28;19924;-76
2022/04/05 07:55:53;;;;;;;;;;;;;;;;;;5085720;28;19924;-75
2022/04/05 07:58:20;;;;;;;;;;;;;;;;;;5084976;28;20075;-75
2022/04/05 08:00:47;;;;;;;;;;;;;;;;;;5069290;28;20007;-75
2022/04/05 08:03:14;;;;;;;;;;;;;;;;;;5090228;28;20382;-75
2022/04/05 08:05:41;;;;;;;;;;;;;;;;;;5087492;28;19930;-75
2022/04/05 08:08:08;;;;;;;;;;;;;;;;;;5090140;28;19924;-75
2022/04/05 08:10:36;;;;;;;;;;;;;;;;;;5081643;28;19928;-76
2022/04/05 08:13:06;;;;;;;;;;;;;;;;;;5085719;28;19924;-79
2022/04/05 08:15:33;;;;;;;;;;;;;;;;;;5082524;28;19931;-76
2022/04/05 08:18:01;;;;;;;;;;;;;;;;;;5077377;28;20013;-76
2022/04/05 08:20:28;;;;;;;;;;;;;;;;;;5083550;28;19924;-75
2022/04/05 08:22:55;;;;;;;;;;;;;;;;;;5082552;28;19932;-76
2022/04/05 08:25:22;;;;;;;;;;;;;;;;;;5084355;28;20016;-75
2022/04/05 08:27:50;;;;;;;;;;;;;;;;;;5085356;28;19924;-76
2022/04/05 08:30:18;;;;;;;;;;;;;;;;;;5085496;28;19939;-76
2022/04/05 08:32:46;;;;;;;;;;;;;;;;;;5083636;28;19938;-72
2022/04/05 08:35:14;;;;;;;;;;;;;;;;;;5083245;28;19928;-73
2022/04/05 08:37:41;;;;;;;;;;;;;;;;;;5082286;28;20375;-73
2022/04/05 08:40:10;;;;;;;;;;;;;;;;;;5079547;28;20566;-78
2022/04/05 08:42:37;;;;;;;;;;;;;;;;;;5079712;28;19925;-78
2022/04/05 08:45:06;;;;;;;;;;;;;;;;;;5079778;28;19931;-76
2022/04/05 08:47:36;;;;;;;;;;;;;;;;;;5084321;28;20283;-76
2022/04/05 08:50:03;;;;;;;;;;;;;;;;;;5080911;28;19947;-76
2022/04/05 08:52:31;;;;;;;;;;;;;;;;;;5081891;28;19930;-76
2022/04/05 08:55:00;;;;;;;;;;;;;;;;;;5083590;28;19924;-78
2022/04/05 08:57:28;;;;;;;;;;;;;;;;;;5081620;28;19928;-75
2022/04/05 08:59:55;;;;;;;;;;;;;;;;;;5084208;28;19968;-76
2022/04/05 09:02:22;;;;;;;;;;;;;;;;;;5081377;28;19947;-80
2022/04/05 09:04:50;;;;;;;;;;;;;;;;;;5078814;28;20418;-77
2022/04/05 09:07:17;;;;;;;;;;;;;;;;;;5078035;28;19940;-76
2022/04/05 09:09:45;;;;;;;;;;;;;;;;;;5085221;28;20058;-78
2022/04/05 09:12:13;;;;;;;;;;;;;;;;;;5082098;28;19924;-77
2022/04/05 09:14:41;;;;;;;;;;;;;;;;;;5082323;28;19936;-77
2022/04/05 09:17:10;;;;;;;;;;;;;;;;;;5080851;28;19932;-77
2022/04/05 09:19:38;;;;;;;;;;;;;;;;;;5078804;28;20372;-77
2022/04/05 09:22:05;;;;;;;;;;;;;;;;;;5078790;28;19928;-77
2022/04/05 09:24:33;;;;;;;;;;;;;;;;;;5065771;28;19924;-79
2022/04/05 09:27:00;;;;;;;;;;;;;;;;;;5067060;28;20056;-79
2022/04/05 09:29:27;;;;;;;;;;;;;;;;;;5063256;28;19932;-75
2022/04/05 09:31:54;;;;;;;;;;;;;;;;;;5059050;28;19929;-75
2022/04/05 09:34:22;;;;;;;;;;;;;;;;;;5060583;28;19940;-76
2022/04/05 09:36:49;;;;;;;;;;;;;;;;;;5042664;28;20671;-75
2022/04/05 09:39:16;;;;;;;;;;;;;;;;;;5055134;28;19929;-77
2022/04/05 09:41:43;;;;;;;;;;;;;;;;;;5057507;28;20313;-75
2022/04/05 09:44:10;;;;;;;;;;;;;;;;;;5058806;28;19935;-76
2022/04/05 09:46:38;;;;;;;;;;;;;;;;;;5059778;28;19968;-76
2022/04/05 09:49:05;;;;;;;;;;;;;;;;;;5060717;28;20380;-75
2022/04/05 09:51:32;;;;;;;;;;;;;;;;;;5058815;28;19924;-77
2022/04/05 09:53:59;;;;;;;;;;;;;;;;;;5060292;28;19943;-77
2022/04/05 09:56:30;;;;;;;;;;;;;;;;;;5059433;28;20627;-77
2022/04/05 09:58:57;;;;;;;;;;;;;;;;;;5059533;28;22206;-77
2022/04/05 10:01:25;;;;;;;;;;;;;;;;;;5064590;28;20078;-72
2022/04/05 10:03:52;;;;;;;;;;;;;;;;;;5061947;28;19932;-77
2022/04/05 10:06:19;;;;;;;;;;;;;;;;;;5061432;28;19929;-75
2022/04/05 10:08:46;;;;;;;;;;;;;;;;;;5057998;28;19929;-72
2022/04/05 10:11:13;;;;;;;;;;;;;;;;;;5058534;28;19932;-73
2022/04/05 10:13:40;;;;;;;;;;;;;;;;;;5067703;28;19954;-71
2022/04/05 10:16:07;;;;;;;;;;;;;;;;;;5064137;28;19924;-73
2022/04/05 10:18:34;;;;;;;;;;;;;;;;;;5068873;28;19924;-75
2022/04/05 10:21:01;;;;;;;;;;;;;;;;;;5061563;28;19931;-78
2022/04/05 10:23:29;;;;;;;;;;;;;;;;;;5083901;28;20303;-78
2022/04/05 10:25:56;;;;;;;;;;;;;;;;;;5082795;28;19930;-83
2022/04/05 10:28:24;;;;;;;;;;;;;;;;;;5093597;28;20367;-76
2022/04/05 10:30:51;;;;;;;;;;;;;;;;;;5083004;28;20010;-78
2022/04/05 10:33:18;;;;;;;;;;;;;;;;;;5087309;28;19924;-78
2022/04/05 10:35:46;;;;;;;;;;;;;;;;;;5083243;28;20011;-77
2022/04/05 10:38:14;;;;;;;;;;;;;;;;;;5087845;28;19932;-75
2022/04/05 10:40:41;;;;;;;;;;;;;;;;;;5081194;28;19943;-75
2022/04/05 10:43:08;;;;;;;;;;;;;;;;;;5085091;28;19940;-76
2022/04/05 10:45:35;;;;;;;;;;;;;;;;;;5078710;28;19955;-80
2022/04/05 10:48:02;;;;;;;;;;;;;;;;;;5085346;28;19924;-77
2022/04/05 10:50:29;;;;;;;;;;;;;;;;;;5084480;28;19935;-77
2022/04/05 10:52:56;;;;;;;;;;;;;;;;;;5088288;28;20447;-78
2022/04/05 10:55:23;;;;;;;;;;;;;;;;;;5080742;28;20015;-76
2022/04/05 10:57:50;;;;;;;;;;;;;;;;;;5081076;28;20108;-76
2022/04/05 11:00:17;;;;;;;;;;;;;;;;;;5083123;28;19924;-76
2022/04/05 11:02:45;;;;;;;;;;;;;;;;;;5086654;28;20375;-79
2022/04/05 11:05:12;;;;;;;;;;;;;;;;;;5087247;28;19928;-77
2022/04/05 11:07:39;;;;;;;;;;;;;;;;;;5085340;28;19974;-77
2022/04/05 11:10:06;;;;;;;;;;;;;;;;;;5084123;28;20014;-78
2022/04/05 11:12:35;;;;;;;;;;;;;;;;;;5084949;28;19947;-77
2022/04/05 11:15:04;;;;;;;;;;;;;;;;;;5084087;28;20011;-77
2022/04/05 11:17:36;;;;;;;;;;;;;;;;;;5079270;28;19928;-77
2022/04/05 11:20:03;;;;;;;;;;;;;;;;;;5083949;28;19931;-78
2022/04/05 11:22:30;;;;;;;;;;;;;;;;;;5082518;28;20329;-79
2022/04/05 11:25:00;;;;;;;;;;;;;;;;;;5082279;28;19927;-78
2022/04/05 11:27:28;;;;;;;;;;;;;;;;;;5081605;28;19932;-79
2022/04/05 11:29:55;;;;;;;;;;;;;;;;;;5079882;28;19966;-81
2022/04/05 11:32:23;;;;;;;;;;;;;;;;;;5084306;28;19924;-77
2022/04/05 11:34:50;;;;;;;;;;;;;;;;;;5087135;28;20358;-78
2022/04/05 11:37:17;;;;;;;;;;;;;;;;;;5088111;28;19938;-79
2022/04/05 11:39:45;;;;;;;;;;;;;;;;;;5082242;28;19966;-77
2022/04/05 11:42:12;;;;;;;;;;;;;;;;;;5082240;28;19932;-79
2022/04/05 11:44:40;;;;;;;;;;;;;;;;;;5086652;28;20405;-80
2022/04/05 11:47:09;;;;;;;;;;;;;;;;;;5080022;28;19929;-78
2022/04/05 11:49:36;;;;;;;;;;;;;;;;;;5079279;28;19946;-78
2022/04/05 11:52:04;;;;;;;;;;;;;;;;;;5084284;28;20407;-79
2022/04/05 11:56:00;;;;;;;;;;;;;;;;;;5084121;28;19924;-77
2022/04/05 11:57:18;;;;;;;;;;;;;;;;;;5077901;28;20066;-76
2022/04/05 11:59:46;;;;;;;;;;;;;;;;;;5078111;28;20035;-77
2022/04/05 12:02:13;;;;;;;;;;;;;;;;;;5084294;28;19924;-79
2022/04/05 12:04:40;;;;;;;;;;;;;;;;;;5089872;28;20231;-77
2022/04/05 12:07:08;;;;;;;;;;;;;;;;;;5075676;28;19928;-79
2022/04/05 12:09:36;;;;;;;;;;;;;;;;;;5088986;28;20022;-75
2022/04/05 12:12:03;;;;;;;;;;;;;;;;;;5084191;28;19924;-75
2022/04/05 12:14:30;;;;;;;;;;;;;;;;;;5090227;28;20001;-75
2022/04/05 12:16:58;;;;;;;;;;;;;;;;;;5081970;28;20015;-75
2022/04/05 12:19:25;;;;;;;;;;;;;;;;;;5086300;28;19924;-76
2022/04/05 12:21:52;;;;;;;;;;;;;;;;;;5088627;28;19932;-76
2022/04/05 12:24:22;;;;;;;;;;;;;;;;;;5087676;28;20351;-77
2022/04/05 12:26:49;;;;;;;;;;;;;;;;;;5084411;28;19924;-76
2022/04/05 12:29:16;;;;;;;;;;;;;;;;;;5088063;28;19924;-79
2022/04/05 12:31:43;;;;;;;;;;;;;;;;;;5083839;28;19962;-78
2022/04/05 12:34:11;;;;;;;;;;;;;;;;;;5088759;28;20018;-82
2022/04/05 12:36:40;;;;;;;;;;;;;;;;;;5092363;28;20415;-81
2022/04/05 12:39:09;;;;;;;;;;;;;;;;;;5086580;28;19979;-78
2022/04/05 12:41:37;;;;;;;;;;;;;;;;;;5083904;28;19991;-79
2022/04/05 12:44:04;;;;;;;;;;;;;;;;;;5090307;28;20465;-74
2022/04/05 12:46:31;;;;;;;;;;;;;;;;;;5088186;28;19986;-75
2022/04/05 12:48:59;;;;;;;;;;;;;;;;;;5086728;28;19932;-77
2022/04/05 12:51:26;;;;;;;;;;;;;;;;;;5091144;28;19934;-78
2022/04/05 12:53:53;;;;;;;;;;;;;;;;;;5086513;28;19931;-71
2022/04/05 12:56:20;;;;;;;;;;;;;;;;;;5088280;28;20340;-77
2022/04/05 12:58:49;;;;;;;;;;;;;;;;;;5091091;28;19932;-77
2022/04/05 13:01:16;;;;;;;;;;;;;;;;;;5085521;28;20310;-77
2022/04/05 13:03:43;;;;;;;;;;;;;;;;;;5086733;28;19928;-76
2022/04/05 13:06:23;;;;;;;;;;;;;;;;;;5095865;28;19930;-76
2022/04/05 13:08:50;;;;;;;;;;;;;;;;;;5087016;28;19932;-76
2022/04/05 13:11:17;;;;;;;;;;;;;;;;;;5091579;28;20272;-75
2022/04/05 13:13:44;;;;;;;;;;;;;;;;;;5086449;28;20350;-76
2022/04/05 13:16:11;;;;;;;;;;;;;;;;;;5085939;28;20485;-75
2022/04/05 13:18:38;;;;;;;;;;;;;;;;;;5083079;28;20041;-76
2022/04/05 13:21:05;;;;;;;;;;;;;;;;;;5084602;28;19955;-76
2022/04/05 13:23:32;;;;;;;;;;;;;;;;;;5086175;28;19924;-76
2022/04/05 13:25:59;;;;;;;;;;;;;;;;;;5085717;28;19924;-77
2022/04/05 13:28:26;;;;;;;;;;;;;;;;;;5085064;28;19924;-76
2022/04/05 13:30:53;;;;;;;;;;;;;;;;;;5088643;28;19967;-75
2022/04/05 13:33:20;;;;;;;;;;;;;;;;;;5087285;28;20062;-76
2022/04/05 13:35:47;;;;;;;;;;;;;;;;;;5087678;28;20103;-77
2022/04/05 13:38:14;;;;;;;;;;;;;;;;;;5089025;28;19930;-77
2022/04/05 13:40:41;;;;;;;;;;;;;;;;;;5085663;28;19928;-77
2022/04/05 13:43:09;;;;;;;;;;;;;;;;;;5089012;28;19963;-77
2022/04/05 13:45:36;;;;;;;;;;;;;;;;;;5086822;28;19947;-76
2022/04/05 13:48:03;;;;;;;;;;;;;;;;;;5089491;28;19924;-77
2022/04/05 13:50:30;;;;;;;;;;;;;;;;;;5086575;28;20397;-76
2022/04/05 13:52:57;;;;;;;;;;;;;;;;;;5087013;28;20451;-77
2022/04/05 13:55:24;;;;;;;;;;;;;;;;;;5084843;28;19931;-74
2022/04/05 13:57:52;;;;;;;;;;;;;;;;;;5082530;28;19924;-76
2022/04/05 14:00:19;;;;;;;;;;;;;;;;;;5083864;28;20142;-77
2022/04/05 14:02:46;;;;;;;;;;;;;;;;;;5073272;28;20059;-77
2022/04/05 14:05:15;;;;;;;;;;;;;;;;;;5086108;28;19931;-75
2022/04/05 14:07:42;;;;;;;;;;;;;;;;;;5088348;28;20359;-78
2022/04/05 14:10:09;;;;;;;;;;;;;;;;;;5084707;28;19928;-79
2022/04/05 14:12:36;;;;;;;;;;;;;;;;;;5086701;28;19939;-79
2022/04/05 14:15:03;;;;;;;;;;;;;;;;;;5088435;28;19931;-77
2022/04/05 14:17:30;;;;;;;;;;;;;;;;;;5090743;28;19930;-73
2022/04/05 14:20:00;;;;;;;;;;;;;;;;;;5089061;28;20019;-77
2022/04/05 14:22:27;;;;;;;;;;;;;;;;;;5088605;28;20344;-78
2022/04/05 14:24:55;;;;;;;;;;;;;;;;;;5062802;28;20016;-76
2022/04/05 14:27:22;;;;;;;;;;;;;;;;;;5069122;28;20295;-75
2022/04/05 14:29:49;;;;;;;;;;;;;;;;;;5066202;28;19936;-76
2022/04/05 14:32:16;;;;;;;;;;;;;;;;;;5068812;28;19925;-74
2022/04/05 14:34:43;;;;;;;;;;;;;;;;;;5068040;28;19948;-74
2022/04/05 14:37:10;;;;;;;;;;;;;;;;;;5065691;28;20377;-76
2022/04/05 14:39:37;;;;;;;;;;;;;;;;;;5064656;28;19924;-78
2022/04/05 14:42:04;;;;;;;;;;;;;;;;;;5065379;28;19931;-76
2022/04/05 14:44:31;;;;;;;;;;;;;;;;;;5063168;28;19924;-76
2022/04/05 14:46:58;;;;;;;;;;;;;;;;;;5066546;28;19928;-75
2022/04/05 14:49:26;;;;;;;;;;;;;;;;;;5065197;28;19933;-76
2022/04/05 14:51:53;;;;;;;;;;;;;;;;;;5067636;28;19928;-75
2022/04/05 14:54:20;;;;;;;;;;;;;;;;;;5062261;28;19929;-77
2022/04/05 14:56:47;;;;;;;;;;;;;;;;;;5066295;28;19935;-78
2022/04/05 14:59:16;;;;;;;;;;;;;;;;;;5061443;28;19924;-76
2022/04/05 15:01:43;;;;;;;;;;;;;;;;;;5066475;28;19928;-78
2022/04/05 15:04:10;;;;;;;;;;;;;;;;;;5067911;28;19963;-80
2022/04/05 15:06:37;;;;;;;;;;;;;;;;;;5072272;28;19933;-77
2022/04/05 15:09:04;;;;;;;;;;;;;;;;;;5070745;28;20355;-77
2022/04/05 15:11:31;;;;;;;;;;;;;;;;;;5060070;28;19939;-77
2022/04/05 15:13:58;;;;;;;;;;;;;;;;;;5069093;28;19942;-76
2022/04/05 15:16:27;;;;;;;;;;;;;;;;;;5062715;28;20025;-77
2022/04/05 15:18:54;;;;;;;;;;;;;;;;;;5067256;28;20011;-77
2022/04/05 15:21:21;;;;;;;;;;;;;;;;;;5066339;28;19939;-78
2022/04/05 15:23:48;;;;;;;;;;;;;;;;;;5066561;28;19964;-80
2022/04/05 15:26:16;;;;;;;;;;;;;;;;;;5069161;28;19933;-78
2022/04/05 15:28:43;;;;;;;;;;;;;;;;;;5069840;28;20023;-79
2022/04/05 15:31:11;;;;;;;;;;;;;;;;;;5071559;28;19924;-77
2022/04/05 15:33:38;;;;;;;;;;;;;;;;;;5071837;28;19931;-78
2022/04/05 15:36:07;;;;;;;;;;;;;;;;;;5065691;28;20017;-78
2022/04/05 15:38:34;;;;;;;;;;;;;;;;;;5066640;28;19932;-78
2022/04/05 15:41:01;;;;;;;;;;;;;;;;;;5069020;28;19931;-81
2022/04/05 15:43:28;;;;;;;;;;;;;;;;;;5070384;28;20014;-78
2022/04/05 15:45:55;;;;;;;;;;;;;;;;;;5065540;28;20012;-76
2022/04/05 15:48:22;;;;;;;;;;;;;;;;;;5065495;28;19960;-76
2022/04/05 15:50:49;;;;;;;;;;;;;;;;;;5069719;28;19935;-77
2022/04/05 15:53:16;;;;;;;;;;;;;;;;;;5069288;28;19939;-80
2022/04/05 15:55:43;;;;;;;;;;;;;;;;;;5069032;28;20027;-77
2022/04/05 15:58:10;;;;;;;;;;;;;;;;;;5068131;28;19986;-78
2022/04/05 16:00:38;;;;;;;;;;;;;;;;;;5066977;28;20197;-80
2022/04/05 16:03:05;;;;;;;;;;;;;;;;;;5067301;28;19929;-75
2022/04/05 16:05:32;;;;;;;;;;;;;;;;;;5067739;28;19948;-74
2022/04/05 16:07:59;;;;;;;;;;;;;;;;;;5069280;28;20402;-74
2022/04/05 16:10:26;;;;;;;;;;;;;;;;;;5065582;28;19931;-74
2022/04/05 16:12:53;;;;;;;;;;;;;;;;;;5068918;28;19932;-74
2022/04/05 16:15:20;;;;;;;;;;;;;;;;;;5067686;28;19933;-75
2022/04/05 16:17:47;;;;;;;;;;;;;;;;;;5061158;28;20019;-76
2022/04/05 16:20:15;;;;;;;;;;;;;;;;;;5064839;28;19925;-75
2022/04/05 16:22:42;;;;;;;;;;;;;;;;;;5077897;28;20326;-76
2022/04/05 16:25:09;;;;;;;;;;;;;;;;;;5091518;28;19982;-75
2022/04/05 16:27:36;;;;;;;;;;;;;;;;;;5092972;28;19924;-75
2022/04/05 16:30:03;;;;;;;;;;;;;;;;;;5089409;28;20707;-76
2022/04/05 16:32:30;;;;;;;;;;;;;;;;;;5091591;28;19924;-77
2022/04/05 16:34:58;;;;;;;;;;;;;;;;;;5089095;28;20014;-76
2022/04/05 16:37:25;;;;;;;;;;;;;;;;;;5089544;28;20016;-78
2022/04/05 16:39:52;;;;;;;;;;;;;;;;;;5067688;28;19973;-77
2022/04/05 16:42:19;;;;;;;;;;;;;;;;;;5090329;28;19932;-77
2022/04/05 16:44:46;;;;;;;;;;;;;;;;;;5083878;28;20448;-75
2022/04/05 16:47:13;;;;;;;;;;;;;;;;;;5088040;28;20317;-76
2022/04/05 16:49:40;;;;;;;;;;;;;;;;;;5089018;28;19931;-76